Tampa, Florida
Current Conditions -  °F | °C
As of 1:53 PM on Tuesday 21 Oct 2014 (Local Time) from KTPA Reporting Station
Overcast Overcast  
Wind Chill: 83°   Ceiling: 22000
Heat Index: 84°   Visibility: 8mi
Dew Point: 63°   Wind: 8mph
Humidity: 51%   Direction: 270°W
Pressure: 29.94"   Gusts: NA
Location:  27.95°N, 82.46°W
Report Text: KTPA 211753Z 27007KT 8SM SCT050 OVC220 28/17 A2994 RMK AO2 SLP138 T02830172 10283 20217 58014
Loading
Personal Weather Stations






























Interactive Weather Map
Tropical Storm Tracking
New forecast layout! Learn more

10-Day Weather Forecast

Advertisements
Track Severe Weather on mobile